TimeCST,TemperatureF,Dew PointF,Humidity,Sea Level PressureIn,VisibilityMPH,Wind Direction,Wind SpeedMPH,Gust SpeedMPH,PrecipitationIn,Events,Conditions,WindDirDegrees,DateUTC
12:53 AM,6.1,-7.1,55,30.57,10.0,NNW,16.1,-,N/A,,Clear,330,2012-02-11 06:53:00
1:53 AM,5.0,-8.0,55,30.58,10.0,NW,19.6,-,N/A,,Clear,320,2012-02-11 07:53:00
2:53 AM,3.0,-7.1,63,30.59,10.0,NW,18.4,-,N/A,,Clear,320,2012-02-11 08:53:00
3:53 AM,1.0,-8.0,66,30.60,10.0,NW,18.4,-,N/A,,Clear,320,2012-02-11 09:53:00
4:53 AM,-0.0,-9.0,66,30.62,10.0,NW,15.0,-,N/A,,Clear,320,2012-02-11 10:53:00
5:53 AM,-0.0,-9.0,66,30.63,10.0,NW,15.0,-,N/A,,Clear,320,2012-02-11 11:53:00
6:53 AM,-0.0,-9.9,63,30.63,10.0,NW,19.6,-,N/A,,Clear,320,2012-02-11 12:53:00
7:53 AM,-0.0,-11.0,60,30.66,10.0,NW,18.4,-,N/A,,Clear,320,2012-02-11 13:53:00
8:53 AM,3.9,-9.0,55,30.67,10.0,NW,23.0,27.6,N/A,,Clear,320,2012-02-11 14:53:00
9:53 AM,9.0,-9.0,44,30.67,10.0,NW,23.0,28.8,N/A,,Clear,320,2012-02-11 15:53:00
10:53 AM,12.9,-9.0,37,30.68,10.0,NNW,24.2,29.9,N/A,,Clear,330,2012-02-11 16:53:00
11:53 AM,16.0,-8.0,34,30.66,10.0,NNW,24.2,33.4,N/A,,Clear,330,2012-02-11 17:53:00
12:53 PM,19.0,-8.0,30,30.63,10.0,NW,26.5,33.4,N/A,,Clear,310,2012-02-11 18:53:00
1:53 PM,19.9,-7.1,30,30.61,10.0,NW,26.5,32.2,N/A,,Clear,310,2012-02-11 19:53:00
2:53 PM,19.9,-7.1,30,30.61,10.0,WNW,23.0,28.8,N/A,,Clear,300,2012-02-11 20:53:00
3:53 PM,21.0,-7.1,29,30.60,10.0,WNW,24.2,29.9,N/A,,Clear,300,2012-02-11 21:53:00
4:53 PM,19.9,-6.0,32,30.60,10.0,NW,21.9,27.6,N/A,,Clear,310,2012-02-11 22:53:00
5:53 PM,16.0,-5.1,39,30.60,10.0,WNW,12.7,-,N/A,,Clear,300,2012-02-11 23:53:00
6:53 PM,15.1,-5.1,41,30.59,10.0,NW,12.7,-,N/A,,Clear,310,2012-02-12 00:53:00
7:53 PM,14.0,-4.0,45,30.59,10.0,NW,13.8,-,N/A,,Clear,320,2012-02-12 01:53:00
8:53 PM,12.9,-4.0,47,30.59,10.0,NW,12.7,-,N/A,,Clear,310,2012-02-12 02:53:00
9:53 PM,12.0,-4.0,49,30.59,10.0,WNW,12.7,-,N/A,,Clear,300,2012-02-12 03:53:00
10:53 PM,12.0,-4.0,49,30.58,10.0,NW,11.5,-,N/A,,Clear,310,2012-02-12 04:53:00
11:53 PM,10.9,-4.0,51,30.56,10.0,WNW,12.7,-,N/A,,Clear,300,2012-02-12 05:53:00